createdAt,value
2023-03-06T00:00:35.078Z,53.70
2023-03-06T00:03:02.140Z,52.90
2023-03-06T00:05:29.243Z,53.00
2023-03-06T00:07:56.240Z,53.10
2023-03-06T00:10:25.781Z,53.20
2023-03-06T00:12:53.726Z,53.30
2023-03-06T00:15:21.530Z,53.30
2023-03-06T00:17:48.429Z,53.40
2023-03-06T00:20:15.745Z,53.40
2023-03-06T00:22:43.338Z,54.00
2023-03-06T00:25:13.963Z,53.30
2023-03-06T00:27:40.976Z,53.40
2023-03-06T00:30:10.743Z,53.30
2023-03-06T00:32:37.596Z,53.30
2023-03-06T00:35:04.805Z,53.20
2023-03-06T00:37:31.615Z,53.30
2023-03-06T00:39:58.545Z,53.20
2023-03-06T00:42:25.441Z,53.30
2023-03-06T00:44:52.425Z,53.30
2023-03-06T00:47:19.281Z,53.30
2023-03-06T00:49:46.276Z,53.50
2023-03-06T00:52:13.804Z,53.50
2023-03-06T00:54:41.401Z,53.40
2023-03-06T00:57:08.704Z,53.50
2023-03-06T00:59:36.275Z,53.40
2023-03-06T01:02:03.833Z,53.50
2023-03-06T01:04:31.934Z,53.60
2023-03-06T01:06:58.857Z,53.70
2023-03-06T01:09:25.889Z,53.70
2023-03-06T01:11:53.823Z,53.90
2023-03-06T01:14:21.306Z,54.00
2023-03-06T01:16:48.397Z,54.00
2023-03-06T01:19:17.764Z,54.10
2023-03-06T01:21:45.521Z,54.10
2023-03-06T01:24:12.343Z,54.00
2023-03-06T01:26:39.208Z,53.90
2023-03-06T01:29:06.378Z,53.90
2023-03-06T01:31:33.315Z,53.90
2023-03-06T01:34:00.326Z,53.90
2023-03-06T01:36:27.152Z,54.10
2023-03-06T01:38:54.028Z,54.00
2023-03-06T01:41:21.518Z,54.20
2023-03-06T01:43:48.569Z,54.20
2023-03-06T01:46:38.717Z,54.40
2023-03-06T01:49:25.735Z,54.30
2023-03-06T01:51:57.521Z,54.40
2023-03-06T01:54:29.509Z,54.40
2023-03-06T01:57:03.613Z,54.40
2023-03-06T01:59:31.839Z,54.50
2023-03-06T02:02:01.850Z,54.50
2023-03-06T02:04:29.959Z,54.70
2023-03-06T02:07:00.427Z,54.80
2023-03-06T02:09:30.112Z,54.90
2023-03-06T02:11:57.122Z,54.80
2023-03-06T02:14:24.089Z,54.80
2023-03-06T02:16:51.110Z,54.90
2023-03-06T02:19:39.631Z,55.00
2023-03-06T02:22:07.185Z,55.00
2023-03-06T02:24:55.265Z,55.10
2023-03-06T02:27:24.510Z,55.20
2023-03-06T02:29:53.854Z,55.10
2023-03-06T02:32:22.059Z,55.10
2023-03-06T02:34:53.843Z,55.20
2023-03-06T02:37:21.393Z,55.20
2023-03-06T02:39:55.220Z,55.20
2023-03-06T02:42:26.519Z,55.30
2023-03-06T02:44:56.187Z,55.20
2023-03-06T02:47:23.143Z,55.20
2023-03-06T02:49:49.998Z,55.10
2023-03-06T02:52:18.154Z,55.10
2023-03-06T02:54:44.953Z,55.10
2023-03-06T02:57:12.595Z,55.00
2023-03-06T02:59:39.556Z,55.00
2023-03-06T03:02:06.655Z,54.90
2023-03-06T03:04:34.699Z,54.80
2023-03-06T03:07:02.763Z,54.80
2023-03-06T03:09:36.657Z,54.70
2023-03-06T03:12:07.666Z,54.70
2023-03-06T03:14:34.896Z,54.70
2023-03-06T03:17:03.604Z,54.70
2023-03-06T03:19:30.577Z,54.70
2023-03-06T03:21:57.567Z,54.60
2023-03-06T03:24:25.164Z,54.80
2023-03-06T03:26:52.747Z,54.70
2023-03-06T03:29:21.836Z,54.60
2023-03-06T03:31:48.785Z,54.80
2023-03-06T03:34:16.439Z,54.50
2023-03-06T03:36:43.519Z,54.50
2023-03-06T03:39:11.936Z,54.60
2023-03-06T03:41:39.179Z,54.50
2023-03-06T03:44:08.430Z,54.30
2023-03-06T03:46:35.516Z,54.40
2023-03-06T03:49:04.365Z,54.40
2023-03-06T03:51:31.972Z,54.50
2023-03-06T03:53:59.827Z,54.40
2023-03-06T03:56:29.956Z,54.40
2023-03-06T03:59:02.820Z,54.50
2023-03-06T04:01:36.787Z,54.50
2023-03-06T04:04:05.564Z,54.50
2023-03-06T04:06:32.714Z,54.40
2023-03-06T04:08:59.695Z,54.30
2023-03-06T04:11:26.607Z,54.40
2023-03-06T04:13:54.026Z,54.50
2023-03-06T04:16:20.991Z,54.60
2023-03-06T04:18:49.149Z,54.70
2023-03-06T04:21:16.608Z,54.70
2023-03-06T04:23:43.512Z,54.80
2023-03-06T04:26:10.349Z,54.80
2023-03-06T04:28:37.974Z,54.80
2023-03-06T04:31:05.477Z,54.90
2023-03-06T04:33:32.555Z,55.00
2023-03-06T04:35:59.819Z,55.20
2023-03-06T04:38:30.457Z,55.30
2023-03-06T04:40:57.337Z,55.30
2023-03-06T04:43:24.269Z,55.30
2023-03-06T04:45:51.180Z,55.30
2023-03-06T04:48:18.840Z,55.40
2023-03-06T04:50:45.983Z,55.40
2023-03-06T04:53:14.501Z,55.60
2023-03-06T04:55:41.341Z,55.80
2023-03-06T04:58:08.052Z,56.10
2023-03-06T05:00:34.939Z,56.40
2023-03-06T05:03:02.392Z,56.40
2023-03-06T05:05:29.491Z,56.50
2023-03-06T05:07:56.968Z,56.80
2023-03-06T05:10:24.158Z,57.00
2023-03-06T05:12:50.997Z,57.20
2023-03-06T05:15:18.416Z,57.30
2023-03-06T05:17:46.425Z,57.60
2023-03-06T05:20:14.642Z,57.60
2023-03-06T05:22:42.167Z,57.60
2023-03-06T05:25:10.651Z,57.70
2023-03-06T05:27:38.237Z,57.60
2023-03-06T05:30:05.640Z,57.70
2023-03-06T05:32:35.326Z,57.70
2023-03-06T05:35:02.986Z,57.70
2023-03-06T05:37:29.928Z,57.90
2023-03-06T05:39:56.839Z,57.80
2023-03-06T05:42:23.705Z,57.80
2023-03-06T05:44:50.554Z,57.90
2023-03-06T05:47:17.358Z,58.00
2023-03-06T05:49:44.144Z,58.00
2023-03-06T05:52:11.999Z,58.10
2023-03-06T05:54:38.860Z,58.00
2023-03-06T05:57:06.011Z,58.10
2023-03-06T05:59:33.351Z,58.20
2023-03-06T06:02:01.280Z,58.30
2023-03-06T06:04:28.556Z,58.30
2023-03-06T06:06:57.732Z,58.50
2023-03-06T06:09:26.066Z,58.40
2023-03-06T06:11:54.511Z,58.50
2023-03-06T06:14:22.007Z,58.70
2023-03-06T06:16:49.437Z,58.90
2023-03-06T06:19:19.665Z,58.80
2023-03-06T06:21:52.002Z,58.80
2023-03-06T06:24:21.226Z,58.80
2023-03-06T06:26:51.368Z,58.60
2023-03-06T06:29:18.556Z,58.60
2023-03-06T06:31:45.478Z,58.60
2023-03-06T06:34:13.166Z,58.50
2023-03-06T06:36:40.453Z,58.30
2023-03-06T06:39:08.059Z,57.90
2023-03-06T06:41:54.802Z,57.80
2023-03-06T06:44:22.265Z,57.50
2023-03-06T06:47:21.364Z,57.10
2023-03-06T06:49:37.036Z,57.20
2023-03-06T06:52:05.278Z,56.80
2023-03-06T06:54:33.462Z,56.70
2023-03-06T06:57:00.383Z,56.80
2023-03-06T06:59:27.222Z,56.70
2023-03-06T07:01:54.089Z,56.50
2023-03-06T07:04:20.963Z,56.50
2023-03-06T07:06:47.727Z,56.30
2023-03-06T07:09:14.566Z,56.00
2023-03-06T07:11:41.936Z,56.00
2023-03-06T07:14:09.008Z,55.80
2023-03-06T07:16:35.935Z,55.70
2023-03-06T07:19:03.041Z,55.70
2023-03-06T07:21:30.491Z,55.60
2023-03-06T07:23:57.719Z,55.90
2023-03-06T07:26:28.622Z,55.60
2023-03-06T07:28:55.447Z,55.50
2023-03-06T07:31:24.945Z,55.20
2023-03-06T07:33:53.055Z,54.90
2023-03-06T07:36:20.449Z,54.70
2023-03-06T07:38:47.233Z,54.60
2023-03-06T07:41:16.350Z,54.30
2023-03-06T07:43:44.943Z,54.00
2023-03-06T07:46:14.113Z,53.20
2023-03-06T07:48:41.469Z,52.60
2023-03-06T07:51:14.476Z,52.30
2023-03-06T07:53:41.389Z,51.60
2023-03-06T07:56:09.309Z,51.10
2023-03-06T07:58:41.598Z,50.90
2023-03-06T08:01:13.990Z,51.10
2023-03-06T08:03:41.081Z,51.00
2023-03-06T08:06:28.788Z,51.10
2023-03-06T08:08:57.602Z,50.40
2023-03-06T08:11:30.019Z,49.90
2023-03-06T08:13:58.045Z,49.50
2023-03-06T08:16:27.852Z,49.20
2023-03-06T08:18:55.112Z,48.90
2023-03-06T08:21:24.655Z,48.80
2023-03-06T08:23:51.481Z,48.80
2023-03-06T08:26:24.410Z,48.40
2023-03-06T08:28:52.335Z,48.60
2023-03-06T08:31:34.911Z,48.70
2023-03-06T08:34:06.816Z,48.90
2023-03-06T08:36:33.601Z,48.90
2023-03-06T08:39:00.895Z,48.90
2023-03-06T08:41:28.272Z,48.70
2023-03-06T08:43:55.039Z,48.30
2023-03-06T08:46:24.536Z,48.40
2023-03-06T08:48:51.588Z,48.30
2023-03-06T08:51:20.034Z,48.30
2023-03-06T08:53:47.112Z,48.10
2023-03-06T08:56:24.490Z,47.50
2023-03-06T08:58:51.906Z,47.40
2023-03-06T09:01:25.315Z,47.60
2023-03-06T09:03:54.545Z,47.70
2023-03-06T09:06:21.901Z,47.60
2023-03-06T09:08:50.462Z,47.30
2023-03-06T09:11:17.211Z,46.70
2023-03-06T09:13:44.241Z,45.40
2023-03-06T09:16:12.133Z,45.50
2023-03-06T09:18:39.617Z,45.10
2023-03-06T09:21:08.020Z,44.60
2023-03-06T09:23:35.306Z,44.60
2023-03-06T09:26:02.504Z,44.60
2023-03-06T09:28:29.285Z,45.00
2023-03-06T09:30:56.112Z,45.10
2023-03-06T09:33:23.390Z,44.80
2023-03-06T09:35:53.771Z,44.60
2023-03-06T09:38:22.938Z,43.80
2023-03-06T09:40:58.484Z,43.20
2023-03-06T09:43:39.047Z,42.00
2023-03-06T09:46:27.683Z,41.90
2023-03-06T09:49:20.158Z,42.00
2023-03-06T09:52:07.988Z,42.30
2023-03-06T09:54:50.994Z,42.10
2023-03-06T09:57:30.928Z,42.10
2023-03-06T10:00:04.716Z,41.90
2023-03-06T10:02:46.613Z,42.20
2023-03-06T10:05:24.362Z,41.70
2023-03-06T10:08:12.123Z,41.50
2023-03-06T10:10:48.814Z,40.90
2023-03-06T10:13:50.121Z,39.70
2023-03-06T10:16:35.051Z,37.60
2023-03-06T10:19:04.694Z,36.40
2023-03-06T10:22:04.163Z,36.10
2023-03-06T10:24:53.767Z,35.30
2023-03-06T10:27:29.392Z,35.00
2023-03-06T10:30:38.188Z,34.60
2023-03-06T10:33:20.832Z,33.80
2023-03-06T10:35:53.412Z,34.00
2023-03-06T10:38:32.257Z,33.40
2023-03-06T10:41:11.190Z,33.20
2023-03-06T10:43:44.255Z,33.20
2023-03-06T10:46:14.627Z,32.70
2023-03-06T10:48:42.627Z,32.80
2023-03-06T10:51:18.540Z,32.50
2023-03-06T10:53:58.530Z,31.90
2023-03-06T10:56:37.471Z,30.90
2023-03-06T10:59:25.634Z,31.30
2023-03-06T11:01:58.068Z,32.40
2023-03-06T11:04:36.410Z,32.30
2023-03-06T11:07:06.383Z,32.20
2023-03-06T11:09:33.659Z,31.80
2023-03-06T11:12:30.609Z,31.90
2023-03-06T11:15:08.564Z,31.70
2023-03-06T11:18:09.528Z,29.20
2023-03-06T11:20:52.385Z,28.40
2023-03-06T11:23:22.796Z,28.70
2023-03-06T11:25:50.281Z,29.60
2023-03-06T11:28:38.122Z,30.60
2023-03-06T11:31:33.692Z,31.60
2023-03-06T11:34:13.836Z,29.90
2023-03-06T11:36:45.391Z,29.70
2023-03-06T11:39:25.609Z,29.10
2023-03-06T11:42:20.220Z,29.80
2023-03-06T11:44:52.061Z,30.80
2023-03-06T11:47:36.695Z,31.60
2023-03-06T11:50:15.500Z,30.60
2023-03-06T11:53:01.591Z,31.20
2023-03-06T11:55:49.506Z,31.30
2023-03-06T11:58:53.234Z,30.70
2023-03-06T12:01:43.978Z,32.10
2023-03-06T12:04:37.450Z,32.90
2023-03-06T12:07:21.150Z,33.20
2023-03-06T12:10:09.785Z,33.30
2023-03-06T12:12:58.061Z,32.80
2023-03-06T12:15:52.521Z,33.20
2023-03-06T12:18:28.336Z,33.10
2023-03-06T12:21:03.297Z,32.10
2023-03-06T12:23:45.268Z,32.70
2023-03-06T12:26:32.265Z,33.40
2023-03-06T12:29:17.055Z,34.30
2023-03-06T12:32:22.340Z,33.80
2023-03-06T12:35:08.664Z,33.10
2023-03-06T12:37:41.935Z,32.80
2023-03-06T12:40:32.476Z,33.20
2023-03-06T12:43:43.163Z,34.10
2023-03-06T12:46:15.280Z,35.30
2023-03-06T12:48:46.527Z,36.50
2023-03-06T12:51:17.112Z,36.80
2023-03-06T12:53:45.212Z,37.20
2023-03-06T12:56:15.395Z,37.80
2023-03-06T12:58:52.717Z,38.70
2023-03-06T13:01:42.183Z,38.80
2023-03-06T13:04:27.495Z,38.80
2023-03-06T13:07:42.957Z,38.80
2023-03-06T13:10:24.717Z,38.20
2023-03-06T13:13:24.492Z,37.00
2023-03-06T13:16:03.520Z,36.90
2023-03-06T13:18:33.042Z,37.00
2023-03-06T13:20:59.777Z,36.70
2023-03-06T13:23:29.745Z,36.90
2023-03-06T13:25:58.000Z,36.80
2023-03-06T13:28:50.218Z,36.70
2023-03-06T13:31:33.452Z,36.40
2023-03-06T13:34:26.108Z,37.00
2023-03-06T13:36:52.819Z,37.20
2023-03-06T13:39:19.579Z,37.70
2023-03-06T13:41:59.436Z,37.70
2023-03-06T13:44:26.140Z,37.90
2023-03-06T13:46:57.672Z,38.00
2023-03-06T13:49:25.314Z,38.10
2023-03-06T13:51:51.976Z,38.20
2023-03-06T13:54:46.105Z,38.20
2023-03-06T13:57:34.993Z,38.40
2023-03-06T14:00:46.117Z,38.70
2023-03-06T14:03:37.359Z,39.20
2023-03-06T14:06:44.319Z,39.10
2023-03-06T14:09:29.930Z,39.50
2023-03-06T14:12:16.437Z,39.80
2023-03-06T14:15:05.797Z,40.00
2023-03-06T14:17:39.097Z,39.60
2023-03-06T14:20:18.245Z,39.70
2023-03-06T14:22:45.114Z,39.80
2023-03-06T14:25:17.769Z,40.20
2023-03-06T14:27:47.888Z,40.70
2023-03-06T14:30:18.387Z,41.10
2023-03-06T14:32:45.606Z,41.40
2023-03-06T14:35:30.703Z,41.20
2023-03-06T14:38:00.741Z,41.20
2023-03-06T14:40:42.496Z,41.20
2023-03-06T14:43:23.805Z,41.20
2023-03-06T14:46:03.228Z,40.90
2023-03-06T14:48:42.690Z,40.50
2023-03-06T14:51:21.883Z,40.50
2023-03-06T14:53:50.879Z,40.30
2023-03-06T14:56:23.217Z,40.50
2023-03-06T14:58:59.960Z,39.90
2023-03-06T15:01:37.505Z,40.00
2023-03-06T15:04:47.598Z,39.90
2023-03-06T15:07:19.090Z,40.20
2023-03-06T15:09:52.219Z,39.10
2023-03-06T15:12:19.754Z,38.70
2023-03-06T15:15:00.675Z,38.70
2023-03-06T15:17:27.433Z,38.30
2023-03-06T15:19:58.994Z,37.10
2023-03-06T15:22:25.719Z,37.20
2023-03-06T15:24:53.329Z,37.10
2023-03-06T15:27:30.230Z,37.40
2023-03-06T15:30:30.736Z,37.80
2023-03-06T15:33:19.372Z,37.50
2023-03-06T15:36:01.954Z,37.30
2023-03-06T15:38:42.087Z,37.60
2023-03-06T15:41:37.838Z,37.80
2023-03-06T15:44:15.214Z,38.50
2023-03-06T15:46:42.207Z,38.80
2023-03-06T15:49:16.611Z,39.00
2023-03-06T15:51:43.384Z,39.20
2023-03-06T15:54:12.545Z,39.70
2023-03-06T15:56:42.754Z,40.20
2023-03-06T15:59:35.325Z,40.50
2023-03-06T16:02:10.627Z,40.80
2023-03-06T16:04:37.431Z,41.30
2023-03-06T16:07:04.238Z,41.60
2023-03-06T16:09:30.989Z,42.00
2023-03-06T16:11:57.721Z,44.00
2023-03-06T16:14:24.516Z,45.20
2023-03-06T16:16:56.492Z,46.80
2023-03-06T16:19:27.393Z,47.80
2023-03-06T16:21:55.989Z,48.50
2023-03-06T16:24:23.384Z,49.10
2023-03-06T16:26:52.502Z,49.80
2023-03-06T16:29:21.573Z,50.10
2023-03-06T16:31:48.787Z,50.80
2023-03-06T16:34:15.798Z,51.70
2023-03-06T16:36:42.617Z,51.80
2023-03-06T16:39:14.478Z,52.10
2023-03-06T16:41:41.331Z,52.90
2023-03-06T16:44:10.074Z,52.90
2023-03-06T16:46:45.232Z,53.20
2023-03-06T16:49:38.318Z,53.50
2023-03-06T16:52:05.248Z,53.50
2023-03-06T16:54:31.965Z,53.30
2023-03-06T16:56:58.742Z,53.50
2023-03-06T16:59:25.494Z,53.90
2023-03-06T17:01:52.541Z,54.90
2023-03-06T17:04:19.296Z,55.30
2023-03-06T17:06:46.129Z,55.60
2023-03-06T17:09:14.277Z,55.90
2023-03-06T17:11:43.336Z,56.20
2023-03-06T17:14:10.261Z,56.20
2023-03-06T17:16:40.120Z,56.20
2023-03-06T17:19:07.493Z,56.30
2023-03-06T17:21:35.413Z,56.30
2023-03-06T17:24:03.790Z,56.40
2023-03-06T17:26:30.607Z,56.60
2023-03-06T17:28:57.659Z,56.50
2023-03-06T17:31:27.300Z,56.70
2023-03-06T17:33:59.069Z,57.00
2023-03-06T17:36:30.225Z,56.80
2023-03-06T17:38:58.891Z,56.90
2023-03-06T17:41:25.888Z,57.70
2023-03-06T17:43:54.633Z,56.90
2023-03-06T17:46:21.440Z,57.00
2023-03-06T17:48:48.174Z,56.90
2023-03-06T17:51:14.883Z,56.90
2023-03-06T17:53:41.686Z,57.80
2023-03-06T17:56:11.638Z,57.00
2023-03-06T17:58:38.453Z,56.90
2023-03-06T18:01:16.386Z,56.40
2023-03-06T18:03:48.944Z,56.50
2023-03-06T18:06:16.344Z,57.10
2023-03-06T18:08:43.872Z,56.50
2023-03-06T18:11:11.511Z,56.00
2023-03-06T18:13:41.350Z,56.20
2023-03-06T18:16:09.832Z,56.40
2023-03-06T18:18:36.594Z,56.00
2023-03-06T18:21:09.202Z,56.30
2023-03-06T18:23:37.149Z,56.40
2023-03-06T18:26:09.847Z,56.10
2023-03-06T18:28:36.834Z,56.40
2023-03-06T18:31:08.270Z,56.50
2023-03-06T18:33:35.389Z,56.60
2023-03-06T18:36:04.693Z,56.70
2023-03-06T18:38:31.505Z,56.70
2023-03-06T18:40:58.279Z,56.80
2023-03-06T18:43:25.088Z,56.60
2023-03-06T18:45:58.316Z,57.00
2023-03-06T18:48:25.194Z,57.20
2023-03-06T18:50:51.913Z,57.20
2023-03-06T18:53:19.920Z,57.30
2023-03-06T18:55:48.120Z,57.60
2023-03-06T18:58:15.121Z,57.70
2023-03-06T19:00:43.376Z,57.90
2023-03-06T19:03:11.036Z,57.90
2023-03-06T19:05:42.579Z,58.00
2023-03-06T19:08:09.666Z,58.20
2023-03-06T19:10:37.730Z,58.50
2023-03-06T19:13:05.777Z,58.60
2023-03-06T19:15:33.319Z,58.40
2023-03-06T19:18:00.314Z,58.60
2023-03-06T19:20:27.446Z,59.00
2023-03-06T19:22:54.290Z,58.80
2023-03-06T19:25:21.247Z,59.00
2023-03-06T19:27:48.127Z,59.80
2023-03-06T19:30:16.142Z,60.20
2023-03-06T19:32:46.375Z,60.60
2023-03-06T19:35:13.142Z,61.70
2023-03-06T19:37:39.972Z,62.40
2023-03-06T19:40:07.584Z,63.20
2023-03-06T19:42:34.399Z,63.50
2023-03-06T19:45:01.175Z,64.30
2023-03-06T19:47:28.117Z,64.30
2023-03-06T19:49:55.255Z,65.00
2023-03-06T19:52:24.338Z,65.00
2023-03-06T19:54:51.947Z,65.80
2023-03-06T19:57:20.116Z,66.00
2023-03-06T19:59:51.261Z,66.20
2023-03-06T20:02:26.414Z,66.50
2023-03-06T20:04:54.397Z,67.10
2023-03-06T20:07:21.567Z,67.10
2023-03-06T20:09:48.582Z,67.30
2023-03-06T20:12:15.686Z,67.90
2023-03-06T20:14:42.748Z,67.90
2023-03-06T20:17:09.642Z,67.90
2023-03-06T20:19:36.764Z,67.80
2023-03-06T20:22:03.948Z,67.80
2023-03-06T20:24:30.734Z,67.90
2023-03-06T20:26:59.317Z,68.20
2023-03-06T20:29:28.202Z,68.30
2023-03-06T20:31:57.133Z,68.60
2023-03-06T20:34:25.833Z,68.60
2023-03-06T20:36:53.084Z,68.50
2023-03-06T20:39:21.829Z,68.50
2023-03-06T20:41:48.996Z,68.60
2023-03-06T20:44:18.691Z,68.40
2023-03-06T20:46:46.051Z,68.60
2023-03-06T20:49:13.980Z,68.70
2023-03-06T20:51:41.773Z,69.10
2023-03-06T20:54:12.760Z,69.60
2023-03-06T20:56:41.145Z,69.20
2023-03-06T20:59:10.787Z,69.50
2023-03-06T21:01:41.117Z,69.60
2023-03-06T21:04:10.101Z,69.50
2023-03-06T21:06:37.992Z,69.70
2023-03-06T21:09:06.363Z,69.40
2023-03-06T21:11:34.853Z,69.60
2023-03-06T21:14:01.695Z,70.20
2023-03-06T21:16:30.120Z,69.90
2023-03-06T21:18:58.562Z,69.90
2023-03-06T21:21:29.529Z,69.50
2023-03-06T21:23:56.419Z,70.00
2023-03-06T21:26:25.675Z,70.00
2023-03-06T21:28:52.930Z,70.20
2023-03-06T21:31:21.673Z,70.00
2023-03-06T21:33:49.551Z,70.50
2023-03-06T21:36:18.701Z,70.20
2023-03-06T21:38:47.278Z,70.20
2023-03-06T21:41:19.761Z,70.30
2023-03-06T21:43:46.985Z,70.70
2023-03-06T21:46:14.177Z,70.20
2023-03-06T21:48:41.409Z,70.40
2023-03-06T21:51:11.651Z,70.40
2023-03-06T21:53:41.004Z,70.70
2023-03-06T21:56:08.512Z,70.70
2023-03-06T21:58:35.243Z,70.80
2023-03-06T22:01:02.132Z,71.00
2023-03-06T22:03:28.891Z,71.20
2023-03-06T22:05:56.557Z,71.90
2023-03-06T22:08:25.056Z,72.00
2023-03-06T22:10:51.874Z,71.90
2023-03-06T22:13:19.161Z,71.90
2023-03-06T22:15:50.650Z,72.10
2023-03-06T22:18:17.550Z,72.30
2023-03-06T22:20:44.484Z,72.50
2023-03-06T22:23:11.777Z,73.00
2023-03-06T22:25:38.612Z,72.70
2023-03-06T22:28:05.522Z,73.10
2023-03-06T22:30:32.276Z,73.00
2023-03-06T22:32:59.031Z,72.90
2023-03-06T22:35:25.904Z,72.90
2023-03-06T22:37:52.635Z,73.20
2023-03-06T22:40:19.485Z,72.90
2023-03-06T22:42:46.271Z,72.80
2023-03-06T22:45:13.014Z,72.80
2023-03-06T22:47:39.754Z,72.70
2023-03-06T22:50:07.281Z,72.50
2023-03-06T22:52:34.149Z,72.50
2023-03-06T22:55:00.865Z,72.70
2023-03-06T22:57:27.586Z,72.70
2023-03-06T22:59:54.298Z,72.50
2023-03-06T23:02:21.012Z,72.60
2023-03-06T23:04:53.908Z,72.70
2023-03-06T23:07:21.041Z,72.70
2023-03-06T23:09:48.686Z,72.80
2023-03-06T23:12:34.207Z,72.50
2023-03-06T23:15:19.347Z,72.60
2023-03-06T23:18:04.902Z,72.60
2023-03-06T23:20:50.185Z,72.90
2023-03-06T23:23:36.391Z,72.80
2023-03-06T23:26:05.269Z,72.60
2023-03-06T23:28:32.665Z,73.00
2023-03-06T23:30:59.591Z,72.70
2023-03-06T23:33:26.964Z,72.80
2023-03-06T23:35:53.767Z,72.50
2023-03-06T23:38:20.542Z,72.10
2023-03-06T23:40:47.860Z,72.00
2023-03-06T23:43:14.864Z,72.20
2023-03-06T23:45:41.678Z,72.50
2023-03-06T23:48:08.448Z,72.40
2023-03-06T23:50:35.340Z,72.70
2023-03-06T23:53:02.182Z,72.90
2023-03-06T23:55:28.916Z,72.80
2023-03-06T23:57:55.750Z,72.80
